»·PEaware :: DAL1626 KLAX-KPHX

DAL1626 :: KLAX-KPHX

FLIGHT INFORMATION

Flight Status: Arrived
Operator:
Delta Air Lines
More flights by this operator :: More flights under this callsign
Pilot: Colin A. (19898)
Aircraft: MCDONNELL-DOUGLAS MD-82
(MD82)
More flights by this aircraft type
Origin: KLAX Los Angeles Intl
United States
Destination: KPHX Phoenix Sky Harbor Intl
United States
More flights between these airports :: More routes between these airports
Route: +DOTSS2 CNERY BLH HYDRR1
File this flight plan on PilotEdge
Remarks: PBN / A1B2 DOF / 181006 REG / N882SB EET / KZAB0033 OPR / DAL PER / C RMK / TCAS SIMBRIEF
Altitude:
(Current/Filed)
33,000ft
Speed:
(Current/Filed)
447kts
Departed: 06-Oct-18 03:35 PM
Arrived: 06-Oct-18 04:36 PM
Distance/Time
Traveled:
321nm/1:01
Distance/Time
To Go:
Arrived

Flight Plot

Page will automatically refresh every two minutes.

Flight plan parsing failed; only flown route is shown


Map Options




Map Legend


Flown Route
Filed Route
Departure Airport
Arrival Airport
Navaid (VOR, NDB)
Fix

Horizontal Profiles

Position Reports

Time Latitude Longitude Heading Altitude Ground
Speed
06-Oct-18 15:11 33.940605 -118.405131 83 135ft 0kts
06-Oct-18 15:12 33.940605 -118.405131 83 135ft 0kts
06-Oct-18 15:13 33.940605 -118.405131 83 135ft 0kts
06-Oct-18 15:14 33.940605 -118.405131 83 135ft 0kts
06-Oct-18 15:15 33.940605 -118.405131 83 135ft 0kts
06-Oct-18 15:16 33.940605 -118.405131 83 135ft 0kts
06-Oct-18 15:17 33.940605 -118.405131 83 135ft 0kts
06-Oct-18 15:18 33.940605 -118.405131 83 135ft 0kts
06-Oct-18 15:19 33.940605 -118.405131 83 135ft 0kts
06-Oct-18 15:20 33.940605 -118.405131 83 135ft 0kts
06-Oct-18 15:21 33.940605 -118.405131 83 135ft 0kts
06-Oct-18 15:22 33.940605 -118.405131 83 135ft 0kts
06-Oct-18 15:23 33.940605 -118.405131 83 135ft 0kts
06-Oct-18 15:24 33.940605 -118.405131 83 135ft 0kts
06-Oct-18 15:25 33.940605 -118.405131 83 135ft 0kts
06-Oct-18 15:26 33.940605 -118.405131 83 135ft 0kts
06-Oct-18 15:27 33.940599 -118.405189 83 135ft 2kts
06-Oct-18 15:28 33.940531 -118.405856 83 135ft 0kts
06-Oct-18 15:29 33.940531 -118.405855 83 135ft 0kts
06-Oct-18 15:30 33.940531 -118.405852 83 135ft 0kts
06-Oct-18 15:31 33.940531 -118.405849 83 135ft 0kts
06-Oct-18 15:32 33.939745 -118.405548 171 135ft 2kts
06-Oct-18 15:33 33.938331 -118.404283 82 135ft 21kts
06-Oct-18 15:34 33.939211 -118.395784 83 135ft 24kts
06-Oct-18 15:35 33.940012 -118.388071 80 135ft 22kts
06-Oct-18 15:36 33.940710 -118.381187 84 135ft 11kts
06-Oct-18 15:37 33.939560 -118.382816 262 135ft 61kts
06-Oct-18 15:38 33.934297 -118.437633 262 1378ft 234kts
06-Oct-18 15:39 33.907984 -118.510412 227 3303ft 252kts
06-Oct-18 15:40 33.855262 -118.570908 204 4893ft 272kts
06-Oct-18 15:41 33.781145 -118.554468 160 5223ft 277kts
06-Oct-18 15:42 33.707168 -118.524381 154 7269ft 295kts
06-Oct-18 15:43 33.669332 -118.436775 101 9299ft 307kts
06-Oct-18 15:44 33.646948 -118.332698 94 10637ft 343kts
06-Oct-18 15:45 33.644517 -118.213315 86 12919ft 370kts
06-Oct-18 15:46 33.645535 -118.085535 86 14985ft 398kts
06-Oct-18 15:47 33.645686 -117.949446 86 16976ft 414kts
06-Oct-18 15:48 33.645153 -117.808740 89 19025ft 431kts
06-Oct-18 15:49 33.615711 -117.666880 109 21177ft 448kts
06-Oct-18 15:50 33.576638 -117.522219 105 22809ft 464kts
06-Oct-18 15:51 33.541213 -117.374580 106 23373ft 462kts
06-Oct-18 15:52 33.507101 -117.224765 96 24979ft 471kts
06-Oct-18 15:53 33.501733 -117.067055 86 26360ft 477kts
06-Oct-18 15:54 33.502072 -116.906614 88 27522ft 487kts
06-Oct-18 15:55 33.499023 -116.742978 88 28467ft 496kts
06-Oct-18 15:56 33.495878 -116.576851 89 29388ft 502kts
06-Oct-18 15:57 33.493581 -116.409463 88 30438ft 501kts
06-Oct-18 15:58 33.490664 -116.243110 89 31496ft 498kts
06-Oct-18 15:59 33.488282 -116.077153 88 32525ft 494kts
06-Oct-18 16:00 33.515740 -115.918683 64 32662ft 485kts
06-Oct-18 16:01 33.565324 -115.768203 64 32665ft 486kts
06-Oct-18 16:02 33.611276 -115.615523 66 32660ft 488kts
06-Oct-18 16:03 33.629069 -115.455216 96 32661ft 497kts
06-Oct-18 16:04 33.611972 -115.291135 92 32663ft 494kts
06-Oct-18 16:05 33.608655 -115.126241 89 32663ft 493kts
06-Oct-18 16:06 33.604273 -114.962111 91 32665ft 494kts
06-Oct-18 16:07 33.598906 -114.796916 91 32289ft 498kts
06-Oct-18 16:08 33.576619 -114.636525 107 30327ft 482kts
06-Oct-18 16:09 33.542425 -114.482944 104 28324ft 471kts
06-Oct-18 16:10 33.512873 -114.326068 104 26325ft 480kts
06-Oct-18 16:11 33.482443 -114.172842 104 24324ft 466kts
06-Oct-18 16:12 33.453257 -114.024283 104 22712ft 450kts
06-Oct-18 16:13 33.423643 -113.878321 105 22708ft 451kts
06-Oct-18 16:14 33.394079 -113.732207 105 22702ft 451kts
06-Oct-18 16:15 33.364507 -113.587046 105 22356ft 446kts
06-Oct-18 16:16 33.335754 -113.443840 104 21645ft 439kts
06-Oct-18 16:17 33.311384 -113.301929 104 20539ft 430kts
06-Oct-18 16:18 33.289506 -113.162750 102 19313ft 421kts
06-Oct-18 16:19 33.275862 -113.028767 92 18336ft 403kts
06-Oct-18 16:20 33.279018 -112.891517 89 15186ft 396kts
06-Oct-18 16:21 33.284976 -112.772254 85 14869ft 348kts
06-Oct-18 16:22 33.296631 -112.657234 85 14569ft 344kts
06-Oct-18 16:23 33.350524 -112.559730 58 11597ft 364kts
06-Oct-18 16:24 33.338931 -112.462107 122 10261ft 324kts
06-Oct-18 16:25 33.309761 -112.366453 102 9724ft 291kts
06-Oct-18 16:26 33.325436 -112.269255 77 9314ft 308kts
06-Oct-18 16:27 33.341187 -112.167280 85 7478ft 307kts
06-Oct-18 16:28 33.348763 -112.070224 90 6738ft 278kts
06-Oct-18 16:29 33.351660 -111.977581 91 5967ft 272kts
06-Oct-18 16:30 33.354486 -111.889193 91 4871ft 260kts
06-Oct-18 16:31 33.357197 -111.803475 90 3965ft 257kts
06-Oct-18 16:32 33.388760 -111.736956 10 3786ft 242kts
06-Oct-18 16:33 33.442522 -111.767898 295 3754ft 225kts
06-Oct-18 16:34 33.441469 -111.839419 266 3644ft 206kts
06-Oct-18 16:35 33.440871 -111.898500 265 2630ft 153kts
06-Oct-18 16:36 33.440931 -111.945062 266 1956ft 143kts
06-Oct-18 16:37 33.440868 -111.993372 267 1171ft 142kts
06-Oct-18 16:38 33.439978 -112.011112 208 1144ft 0kts
06-Oct-18 16:39 33.439975 -112.011114 208 1144ft 0kts
06-Oct-18 16:40 33.438995 -112.008732 90 1144ft 15kts
06-Oct-18 16:41 33.438092 -112.007417 179 1144ft 4kts
06-Oct-18 16:42 33.436942 -112.008003 269 1144ft 0kts
06-Oct-18 16:43 33.436942 -112.008003 269 1144ft 0kts

Navigation Log

Ident Type
Flight plan parsing failed, navigation log unavailable